Time;durP1;ratioP1;P1;durP2;ratioP2;P2;SDS_P1;SDS_P2;PMS_P1;PMS_P2;Temp;Humidity;BMP_temperature;BMP_pressure;BME280_temperature;BME280_humidity;BME280_pressure;Samples;Min_cycle;Max_cycle;Signal;HPM_P1;HPM_P2
2022/06/13 00:00:53;;;;;;;4.63;3.67;;;18.20;91.20;;;;;;5114381;28;20873;-71
2022/06/13 00:03:19;;;;;;;4.97;4.10;;;18.20;91.50;;;;;;5114673;28;20199;-71
2022/06/13 00:05:45;;;;;;;4.83;3.80;;;18.20;91.60;;;;;;5114426;28;20504;-71
2022/06/13 00:08:11;;;;;;;4.10;3.40;;;18.20;91.90;;;;;;5113556;28;20180;-71
2022/06/13 00:10:36;;;;;;;4.30;3.70;;;18.20;91.80;;;;;;5114372;28;20168;-71
2022/06/13 00:13:03;;;;;;;4.43;3.40;;;18.20;91.70;;;;;;5113698;28;20203;-71
2022/06/13 00:15:29;;;;;;;4.63;3.70;;;18.20;91.80;;;;;;5114375;28;20172;-71
2022/06/13 00:17:55;;;;;;;3.90;3.60;;;18.10;91.80;;;;;;5113508;28;20432;-71
2022/06/13 00:20:21;;;;;;;4.70;4.30;;;18.10;92.30;;;;;;5113810;28;20457;-71
2022/06/13 00:22:46;;;;;;;4.23;3.97;;;18.10;92.50;;;;;;5112983;28;20176;-71
2022/06/13 00:25:12;;;;;;;4.17;3.87;;;18.00;92.70;;;;;;5113495;28;20450;-71
2022/06/13 00:27:38;;;;;;;4.43;4.03;;;18.00;93.10;;;;;;5114153;28;20229;-71
2022/06/13 00:30:06;;;;;;;4.50;4.10;;;17.90;93.10;;;;;;5113410;28;20167;-71
2022/06/13 00:32:32;;;;;;;5.33;3.90;;;17.90;93.30;;;;;;5113929;28;20242;-71
2022/06/13 00:34:58;;;;;;;5.13;3.73;;;17.80;93.30;;;;;;5113340;28;20406;-71
2022/06/13 00:37:24;;;;;;;4.17;3.80;;;17.80;92.90;;;;;;5112571;28;20486;-71
2022/06/13 00:39:49;;;;;;;4.40;4.10;;;17.80;93.30;;;;;;5113751;28;20191;-71
2022/06/13 00:42:19;;;;;;;6.17;4.20;;;17.80;93.20;;;;;;5113559;28;20220;-71
2022/06/13 00:45:20;;;;;;;6.27;4.43;;;17.80;93.60;;;;;;5113713;28;20190;-71
2022/06/13 00:47:49;;;;;;;4.70;4.30;;;17.70;94.00;;;;;;5113568;28;20792;-71
2022/06/13 00:50:21;;;;;;;8.93;4.70;;;17.70;94.20;;;;;;5113091;28;20418;-71
2022/06/13 00:53:04;;;;;;;5.00;4.50;;;17.70;94.50;;;;;;5113731;28;20386;-71
2022/06/13 00:55:45;;;;;;;4.00;3.70;;;17.70;94.60;;;;;;5113590;28;20401;-71
2022/06/13 00:58:12;;;;;;;5.53;4.73;;;17.60;94.70;;;;;;5113009;27;20408;-71
2022/06/13 01:00:39;;;;;;;4.67;4.27;;;17.60;94.90;;;;;;5113195;28;20416;-71
2022/06/13 01:03:06;;;;;;;5.07;4.43;;;17.60;94.80;;;;;;5113202;28;20725;-71
2022/06/13 01:05:36;;;;;;;4.73;4.40;;;17.60;95.30;;;;;;5113287;28;20780;-71
2022/06/13 01:08:06;;;;;;;5.43;4.33;;;17.50;94.60;;;;;;5112873;28;20402;-71
2022/06/13 01:13:47;;;;;;;4.50;4.10;;;17.40;94.80;;;;;;5113310;28;20476;-71
2022/06/13 01:16:30;;;;;;;5.17;4.20;;;17.30;95.40;;;;;;5112791;28;20717;-71
2022/06/13 01:19:37;;;;;;;7.90;4.80;;;17.30;95.70;;;;;;5112669;28;20468;-71
2022/06/13 01:22:20;;;;;;;5.73;4.10;;;17.20;95.80;;;;;;5112492;28;20436;-71
2022/06/13 01:25:08;;;;;;;7.30;4.33;;;17.10;96.00;;;;;;5094621;28;20493;-71
2022/06/13 01:27:55;;;;;;;4.63;4.20;;;17.10;96.40;;;;;;5111859;28;20421;-70
2022/06/13 01:30:51;;;;;;;6.03;4.50;;;17.00;96.60;;;;;;5111756;28;20396;-70
2022/06/13 01:33:33;;;;;;;5.93;5.33;;;17.00;97.00;;;;;;5112606;28;20412;-70
2022/06/13 01:36:04;;;;;;;4.97;4.57;;;16.90;97.50;;;;;;5111369;28;20794;-71
2022/06/13 01:38:54;;;;;;;4.57;4.03;;;16.80;97.30;;;;;;5112876;28;20394;-71
2022/06/13 01:41:28;;;;;;;6.03;4.10;;;16.80;97.00;;;;;;5113471;28;20436;-71
2022/06/13 01:44:15;;;;;;;5.20;4.70;;;16.70;97.20;;;;;;5111824;28;20481;-71
2022/06/13 01:47:06;;;;;;;4.60;4.30;;;16.70;97.40;;;;;;5111884;28;20483;-71
2022/06/13 01:49:52;;;;;;;4.93;4.53;;;16.60;97.60;;;;;;5112792;28;20946;-71
2022/06/13 01:52:45;;;;;;;5.20;4.80;;;16.60;98.10;;;;;;5112523;28;20409;-71
2022/06/13 01:55:39;;;;;;;4.97;4.43;;;16.50;98.20;;;;;;5112436;28;20548;-71
2022/06/13 01:58:29;;;;;;;5.17;3.90;;;16.50;98.40;;;;;;5112475;28;20408;-71
2022/06/13 02:01:25;;;;;;;5.07;4.67;;;16.50;98.80;;;;;;5112572;28;20406;-71
2022/06/13 02:04:00;;;;;;;5.20;4.17;;;16.40;99.20;;;;;;5112862;28;20450;-70
2022/06/13 02:06:31;;;;;;;6.30;4.83;;;16.40;99.50;;;;;;5112923;28;20450;-70
2022/06/13 02:09:03;;;;;;;4.33;4.03;;;16.40;99.70;;;;;;5112014;28;20873;-71
2022/06/13 02:11:28;;;;;;;4.43;4.03;;;16.40;99.50;;;;;;5112525;28;20892;-71
2022/06/13 02:14:09;;;;;;;5.30;4.87;;;16.40;99.40;;;;;;5113632;28;20464;-70
2022/06/13 02:17:02;;;;;;;4.83;4.40;;;16.30;99.50;;;;;;5116860;28;20161;-70
2022/06/13 02:19:41;;;;;;;4.37;3.97;;;16.30;99.80;;;;;;5117009;28;20605;-70
2022/06/13 02:22:58;;;;;;;5.10;4.60;;;16.30;99.90;;;;;;5116037;28;20412;-71
2022/06/13 02:25:43;;;;;;;5.43;4.70;;;16.20;99.90;;;;;;5107255;28;20460;-71
2022/06/13 02:28:27;;;;;;;5.07;4.57;;;16.20;99.90;;;;;;5115951;28;20396;-71
2022/06/13 02:31:01;;;;;;;4.90;4.50;;;16.10;99.90;;;;;;5116458;28;20458;-70
2022/06/13 02:33:46;;;;;;;7.27;5.37;;;16.10;99.90;;;;;;5116367;28;20411;-70
2022/06/13 02:36:17;;;;;;;5.17;4.80;;;16.10;99.90;;;;;;5115473;28;20415;-71
2022/06/13 02:38:48;;;;;;;5.10;4.60;;;16.10;99.90;;;;;;5116250;28;20425;-71
2022/06/13 02:41:20;;;;;;;5.87;5.33;;;16.10;99.90;;;;;;5115531;28;20818;-71
2022/06/13 02:44:00;;;;;;;4.90;4.60;;;16.10;99.90;;;;;;5116124;28;20730;-70
2022/06/13 02:46:31;;;;;;;6.80;5.37;;;16.10;99.90;;;;;;5115760;28;20492;-71
2022/06/13 02:49:15;;;;;;;6.87;4.93;;;16.10;99.90;;;;;;5116031;28;20443;-70
2022/06/13 02:52:08;;;;;;;5.53;5.03;;;16.10;99.90;;;;;;5115975;28;20714;-71
2022/06/13 02:54:46;;;;;;;5.00;4.53;;;16.00;99.90;;;;;;5116038;28;20448;-71
2022/06/13 02:57:24;;;;;;;5.40;4.90;;;16.00;99.90;;;;;;5115382;28;20795;-71
2022/06/13 03:00:12;;;;;;;5.23;4.83;;;16.00;99.90;;;;;;5115936;28;20843;-71
2022/06/13 03:02:53;;;;;;;5.47;5.00;;;16.00;99.90;;;;;;5115758;28;20431;-71
2022/06/13 03:05:38;;;;;;;7.20;5.43;;;15.90;99.90;;;;;;5115174;28;20441;-71
2022/06/13 03:08:21;;;;;;;5.30;4.80;;;15.90;99.90;;;;;;5078969;28;20510;-71
2022/06/13 03:11:22;;;;;;;5.33;4.50;;;15.90;99.90;;;;;;5115889;28;20395;-71
2022/06/13 03:13:57;;;;;;;5.30;4.90;;;15.90;99.90;;;;;;5100995;28;20432;-70
2022/06/13 03:16:41;;;;;;;5.97;4.80;;;15.90;99.90;;;;;;5114492;28;20921;-70
2022/06/13 03:19:16;;;;;;;5.90;4.73;;;15.90;99.90;;;;;;5114292;28;20538;-71
2022/06/13 03:21:48;;;;;;;8.67;4.80;;;15.90;99.90;;;;;;5115565;28;20414;-71
2022/06/13 03:24:29;;;;;;;6.37;4.90;;;15.90;99.90;;;;;;5114149;28;20941;-71
2022/06/13 03:27:03;;;;;;;6.60;5.20;;;15.80;99.90;;;;;;5115312;28;20411;-70
2022/06/13 03:29:34;;;;;;;5.27;4.77;;;15.80;99.90;;;;;;5115548;28;20844;-71
2022/06/13 03:32:14;;;;;;;9.53;5.30;;;15.80;99.90;;;;;;5115202;28;20425;-70
2022/06/13 03:34:51;;;;;;;5.30;4.70;;;15.80;99.90;;;;;;5115188;28;20400;-71
2022/06/13 03:37:25;;;;;;;5.10;4.20;;;15.90;99.90;;;;;;5114811;28;20396;-70
2022/06/13 03:40:06;;;;;;;5.40;4.90;;;15.80;99.90;;;;;;5115071;28;20385;-70
2022/06/13 03:42:44;;;;;;;5.33;4.93;;;15.80;99.90;;;;;;5113713;28;20424;-71
2022/06/13 03:45:24;;;;;;;4.90;4.50;;;15.80;99.90;;;;;;5114344;28;20448;-71
2022/06/13 03:47:56;;;;;;;7.47;5.37;;;15.80;99.90;;;;;;5114935;28;20768;-71
2022/06/13 03:50:38;;;;;;;5.57;5.07;;;15.80;99.90;;;;;;5114210;28;21024;-71
2022/06/13 03:53:28;;;;;;;6.53;5.33;;;15.80;99.90;;;;;;5114239;28;20484;-71
2022/06/13 03:56:14;;;;;;;5.17;4.77;;;15.90;99.90;;;;;;5114816;28;20397;-71
2022/06/13 03:58:58;;;;;;;6.13;5.53;;;15.80;99.90;;;;;;5114610;28;20881;-71
2022/06/13 04:01:28;;;;;;;5.57;5.10;;;15.80;99.90;;;;;;5114088;28;20429;-71
2022/06/13 04:03:56;;;;;;;5.53;5.00;;;15.90;99.90;;;;;;5114564;28;20396;-70
2022/06/13 04:06:38;;;;;;;7.17;5.80;;;15.90;99.90;;;;;;5113651;28;20490;-71
2022/06/13 04:09:19;;;;;;;8.57;7.93;;;15.90;99.90;;;;;;5113884;28;20420;-72
2022/06/13 04:12:10;;;;;;;5.73;4.90;;;15.90;99.90;;;;;;5114790;28;20729;-70
2022/06/13 04:14:48;;;;;;;6.07;5.47;;;16.00;99.90;;;;;;5114084;28;20463;-71
2022/06/13 04:18:03;;;;;;;5.20;4.70;;;16.00;99.90;;;;;;5113722;28;20460;-71
2022/06/13 04:21:03;;;;;;;7.53;5.80;;;16.10;99.90;;;;;;5059187;28;20465;-71
2022/06/13 04:23:33;;;;;;;6.73;6.23;;;16.10;99.90;;;;;;5113257;28;20486;-71
2022/06/13 04:26:13;;;;;;;6.20;5.43;;;16.10;99.90;;;;;;5113995;28;20452;-71
2022/06/13 04:28:59;;;;;;;7.50;5.53;;;16.10;99.90;;;;;;5114265;28;20503;-71
2022/06/13 04:31:28;;;;;;;7.03;4.70;;;16.20;99.90;;;;;;5059703;28;20428;-71
2022/06/13 04:34:18;;;;;;;6.23;5.07;;;16.20;99.90;;;;;;5113968;28;20409;-71
2022/06/13 04:36:46;;;;;;;6.43;6.00;;;16.20;99.90;;;;;;5113097;28;20397;-71
2022/06/13 04:39:16;;;;;;;6.77;5.40;;;16.20;99.90;;;;;;5113028;28;20562;-71
2022/06/13 04:41:44;;;;;;;5.10;4.60;;;16.20;99.90;;;;;;5113855;28;20759;-71
2022/06/13 04:44:17;;;;;;;9.67;5.30;;;16.20;99.90;;;;;;5113188;28;20548;-71
2022/06/13 04:46:44;;;;;;;10.97;4.90;;;16.20;99.90;;;;;;5112599;28;20426;-71
2022/06/13 04:49:55;;;;;;;5.70;5.13;;;16.30;99.90;;;;;;5111788;28;20759;-71
2022/06/13 04:52:29;;;;;;;6.40;5.80;;;16.30;99.90;;;;;;5110611;28;20436;-71
2022/06/13 04:55:05;;;;;;;6.30;5.87;;;16.30;99.90;;;;;;5113746;28;20472;-71
2022/06/13 04:57:33;;;;;;;8.27;7.60;;;16.40;99.90;;;;;;5113685;28;20394;-71
2022/06/13 04:59:59;;;;;;;9.37;6.10;;;16.40;99.90;;;;;;5112262;28;20413;-71
2022/06/13 05:02:41;;;;;;;7.30;6.80;;;16.30;99.90;;;;;;5112643;28;20955;-71
2022/06/13 05:05:22;;;;;;;6.90;6.20;;;16.40;99.90;;;;;;5111641;28;20531;-71
2022/06/13 05:07:48;;;;;;;8.30;7.50;;;16.30;99.90;;;;;;5113894;28;20396;-71
2022/06/13 05:10:18;;;;;;;6.30;5.63;;;16.20;99.90;;;;;;5112711;28;20415;-71
2022/06/13 05:12:44;;;;;;;5.77;5.27;;;16.10;99.90;;;;;;5113348;28;20159;-71
2022/06/13 05:15:21;;;;;;;9.03;7.03;;;16.00;99.90;;;;;;5112739;28;20420;-71
2022/06/13 05:18:28;;;;;;;11.00;6.40;;;16.00;99.90;;;;;;5113405;28;20420;-71
2022/06/13 05:21:29;;;;;;;6.33;5.73;;;16.10;99.90;;;;;;5113390;28;20895;-71
2022/06/13 05:24:19;;;;;;;6.60;6.10;;;16.10;99.90;;;;;;5113196;28;20473;-71
2022/06/13 05:26:45;;;;;;;6.50;5.90;;;16.20;99.90;;;;;;5113291;28;20476;-71
2022/06/13 05:29:11;;;;;;;8.67;5.80;;;16.20;99.90;;;;;;5111591;28;20508;-71
2022/06/13 05:31:37;;;;;;;9.07;6.97;;;16.30;99.90;;;;;;5113344;28;20178;-71
2022/06/13 05:34:06;;;;;;;10.27;6.10;;;16.30;99.90;;;;;;5111921;28;20249;-71
2022/06/13 05:36:32;;;;;;;10.63;8.70;;;16.30;99.90;;;;;;5112347;28;20409;-71
2022/06/13 05:39:06;;;;;;;8.37;7.33;;;16.30;99.90;;;;;;5113211;28;20729;-71
2022/06/13 05:41:31;;;;;;;15.97;7.97;;;16.30;99.90;;;;;;5112478;28;20457;-70
2022/06/13 05:43:57;;;;;;;8.60;7.53;;;16.20;99.90;;;;;;5113135;28;20413;-70
2022/06/13 05:46:31;;;;;;;7.37;5.00;;;16.10;99.90;;;;;;5112412;28;20256;-71
2022/06/13 05:48:56;;;;;;;8.10;5.17;;;16.10;99.90;;;;;;5116759;28;20170;-71
2022/06/13 05:51:22;;;;;;;5.67;5.00;;;16.00;99.90;;;;;;5116574;28;20421;-71
2022/06/13 05:53:49;;;;;;;10.67;9.67;;;16.10;99.90;;;;;;5116900;28;20546;-71
2022/06/13 05:56:14;;;;;;;10.10;7.20;;;16.10;99.90;;;;;;5115169;28;20816;-71
2022/06/13 05:58:40;;;;;;;7.60;6.90;;;16.00;99.90;;;;;;5116887;28;20439;-70
2022/06/13 06:01:06;;;;;;;9.17;6.47;;;16.10;99.90;;;;;;5116912;28;20172;-70
2022/06/13 06:03:33;;;;;;;9.67;7.97;;;16.20;99.90;;;;;;5116355;28;20462;-70
2022/06/13 06:06:00;;;;;;;8.03;7.07;;;16.30;99.90;;;;;;5116783;28;20444;-70
2022/06/13 06:08:30;;;;;;;8.07;6.93;;;16.30;99.90;;;;;;5116333;28;20436;-70
2022/06/13 06:10:58;;;;;;;7.57;6.87;;;16.40;99.90;;;;;;5116892;28;20407;-71
2022/06/13 06:13:25;;;;;;;11.40;7.40;;;16.50;99.90;;;;;;5116074;28;20489;-71
2022/06/13 06:15:52;;;;;;;11.60;7.60;;;16.50;99.90;;;;;;5116643;28;20888;-70
2022/06/13 06:18:19;;;;;;;8.13;7.27;;;16.60;99.90;;;;;;5115976;28;20546;-71
2022/06/13 06:20:46;;;;;;;8.63;7.73;;;16.50;99.90;;;;;;5116773;28;20490;-71
2022/06/13 06:23:14;;;;;;;9.00;7.50;;;16.60;99.90;;;;;;5116015;28;20400;-72
2022/06/13 06:25:41;;;;;;;10.03;7.83;;;16.60;99.90;;;;;;5116382;28;20453;-70
2022/06/13 06:28:09;;;;;;;11.90;7.57;;;16.60;99.90;;;;;;5116451;28;20402;-71
2022/06/13 06:30:35;;;;;;;9.53;8.67;;;16.60;99.90;;;;;;5115795;28;20451;-71
2022/06/13 06:33:01;;;;;;;8.13;7.33;;;16.60;99.90;;;;;;5116335;28;20412;-71
2022/06/13 06:35:28;;;;;;;9.53;7.40;;;16.70;99.90;;;;;;5115685;28;20754;-71
2022/06/13 06:37:55;;;;;;;7.93;7.13;;;16.70;99.90;;;;;;5116250;28;20408;-71
2022/06/13 06:40:23;;;;;;;8.67;7.93;;;16.70;99.90;;;;;;5115812;28;20421;-71
2022/06/13 06:42:49;;;;;;;10.60;7.47;;;16.70;99.90;;;;;;5116183;28;20398;-71
2022/06/13 06:45:15;;;;;;;12.20;8.27;;;16.70;99.90;;;;;;5114167;28;20603;-71
2022/06/13 06:47:41;;;;;;;10.40;9.50;;;16.70;99.90;;;;;;5079775;28;20413;-71
2022/06/13 06:50:17;;;;;;;7.97;7.17;;;16.70;99.90;;;;;;5114654;28;20526;-71
2022/06/13 06:52:44;;;;;;;10.60;9.70;;;16.70;99.90;;;;;;5115803;28;20881;-71
2022/06/13 07:00:46;;;;;;;9.57;7.80;;;16.80;99.90;;;;;;5115102;28;20853;-71
2022/06/13 07:03:12;;;;;;;8.70;7.90;;;16.80;99.90;;;;;;5115830;28;20417;-71
2022/06/13 07:05:38;;;;;;;9.90;8.40;;;16.90;99.90;;;;;;5115314;28;20452;-71
2022/06/13 07:08:04;;;;;;;12.03;9.27;;;16.90;99.90;;;;;;5115659;28;20406;-70
2022/06/13 07:10:30;;;;;;;8.57;7.77;;;16.90;99.90;;;;;;5115016;28;20404;-71
2022/06/13 07:12:55;;;;;;;10.20;7.40;;;16.90;99.90;;;;;;5115556;28;20417;-70
2022/06/13 07:15:22;;;;;;;10.73;9.73;;;17.00;99.90;;;;;;5113736;28;20176;-71
2022/06/13 07:17:48;;;;;;;10.23;8.00;;;17.00;99.90;;;;;;5115057;28;20175;-71
2022/06/13 07:20:14;;;;;;;9.47;8.57;;;17.10;99.90;;;;;;5114962;28;20921;-71
2022/06/13 07:22:51;;;;;;;11.40;7.83;;;17.30;99.90;;;;;;5115658;28;20214;-70
2022/06/13 07:25:19;;;;;;;9.87;7.50;;;17.40;99.90;;;;;;5114774;28;20503;-71
2022/06/13 07:27:45;;;;;;;9.50;6.90;;;17.60;99.90;;;;;;5115380;28;20421;-71
2022/06/13 07:30:13;;;;;;;8.43;6.40;;;17.70;99.90;;;;;;5115230;28;20409;-70
2022/06/13 07:32:40;;;;;;;8.37;7.53;;;17.80;99.90;;;;;;5114327;28;20523;-71
2022/06/13 07:35:07;;;;;;;9.20;6.93;;;18.00;99.90;;;;;;5115181;28;20413;-70
2022/06/13 07:40:17;;;;;;;9.23;6.67;;;18.20;99.90;;;;;;5113268;28;20413;-71
2022/06/13 07:42:52;;;;;;;7.80;5.70;;;18.30;99.90;;;;;;5113712;28;20924;-71
2022/06/13 07:45:22;;;;;;;9.63;7.10;;;18.30;99.90;;;;;;5114271;27;20198;-71
2022/06/13 07:47:49;;;;;;;8.63;6.97;;;18.40;99.90;;;;;;5114795;28;20416;-71
2022/06/13 07:50:17;;;;;;;8.03;6.20;;;18.60;99.90;;;;;;5114804;28;20402;-71
2022/06/13 07:52:42;;;;;;;7.37;6.70;;;18.70;99.90;;;;;;5114438;28;20834;-71
2022/06/13 07:55:09;;;;;;;8.97;7.27;;;18.90;99.90;;;;;;5114449;28;20416;-71
2022/06/13 07:57:35;;;;;;;9.07;7.23;;;19.00;99.90;;;;;;5114099;28;20168;-71
2022/06/13 08:00:02;;;;;;;10.17;9.13;;;19.20;99.90;;;;;;5114361;28;20913;-71
2022/06/13 08:02:33;;;;;;;10.33;9.00;;;19.30;99.90;;;;;;5114054;28;20405;-71
2022/06/13 08:04:59;;;;;;;11.70;10.67;;;19.40;99.90;;;;;;5114679;28;20468;-71
2022/06/13 08:07:25;;;;;;;11.43;9.90;;;19.50;99.90;;;;;;5113930;28;20437;-71
2022/06/13 08:09:51;;;;;;;11.77;10.13;;;19.50;99.90;;;;;;5114555;28;20254;-71
2022/06/13 08:12:19;;;;;;;13.63;12.33;;;19.60;99.90;;;;;;5113629;28;20192;-71
2022/06/13 08:14:48;;;;;;;11.93;10.73;;;19.70;99.90;;;;;;5114586;28;20450;-71
2022/06/13 08:17:15;;;;;;;14.90;10.93;;;19.70;99.90;;;;;;5112737;28;20413;-71
2022/06/13 08:19:41;;;;;;;14.20;12.90;;;19.90;99.90;;;;;;5113463;28;20460;-71
2022/06/13 08:22:07;;;;;;;15.73;12.27;;;20.00;99.90;;;;;;5114529;28;20421;-71
2022/06/13 08:24:33;;;;;;;16.60;14.97;;;20.00;99.90;;;;;;5113204;28;20199;-71
2022/06/13 08:26:59;;;;;;;15.83;13.70;;;20.00;99.90;;;;;;5114181;28;20517;-71
2022/06/13 08:29:25;;;;;;;21.50;13.03;;;20.10;99.90;;;;;;5113448;28;20187;-71
2022/06/13 08:31:50;;;;;;;14.97;13.47;;;20.20;99.90;;;;;;5113963;28;20163;-71
2022/06/13 08:34:16;;;;;;;14.80;12.27;;;20.30;99.90;;;;;;5114005;28;20171;-71
2022/06/13 08:36:42;;;;;;;14.53;13.00;;;20.40;99.90;;;;;;5113381;28;20307;-71
2022/06/13 08:39:08;;;;;;;11.63;10.53;;;20.50;99.90;;;;;;5113936;28;20626;-71
2022/06/13 08:41:51;;;;;;;12.80;11.40;;;20.70;99.90;;;;;;5113298;28;20174;-71
2022/06/13 08:44:33;;;;;;;16.40;11.50;;;20.80;99.90;;;;;;5113595;28;20195;-71
2022/06/13 08:47:16;;;;;;;12.77;11.60;;;20.90;99.90;;;;;;5112543;28;20450;-71
2022/06/13 08:50:00;;;;;;;14.27;12.90;;;20.90;99.90;;;;;;5113376;28;20581;-71
2022/06/13 08:52:27;;;;;;;13.50;12.10;;;21.00;99.90;;;;;;5113465;28;20451;-71
2022/06/13 08:55:02;;;;;;;14.13;10.70;;;21.10;99.90;;;;;;5113585;28;20453;-71
2022/06/13 08:57:32;;;;;;;14.97;12.70;;;21.20;99.90;;;;;;5112874;28;20740;-71
2022/06/13 09:00:09;;;;;;;14.27;12.97;;;21.20;98.50;;;;;;5095415;28;20458;-71
2022/06/13 09:03:17;;;;;;;12.30;11.10;;;21.20;98.40;;;;;;5112679;28;20884;-72
2022/06/13 09:05:47;;;;;;;12.33;11.03;;;21.10;99.90;;;;;;5049715;28;20529;-71
2022/06/13 09:08:27;;;;;;;11.13;9.80;;;21.00;99.00;;;;;;5050562;28;20792;-71
2022/06/13 09:11:06;;;;;;;11.87;10.67;;;21.10;99.90;;;;;;5088173;28;20822;-71
2022/06/13 09:14:04;;;;;;;11.83;10.20;;;21.20;99.60;;;;;;5112803;28;20433;-71
2022/06/13 09:16:33;;;;;;;14.80;11.50;;;21.20;98.70;;;;;;5112920;28;20402;-71
2022/06/13 09:19:24;;;;;;;11.23;10.13;;;21.20;96.80;;;;;;5112946;28;21023;-71
2022/06/13 09:22:01;;;;;;;12.67;11.50;;;21.20;97.00;;;;;;5113044;28;20393;-71
2022/06/13 09:24:43;;;;;;;11.77;10.40;;;21.10;98.10;;;;;;5112645;28;20445;-71
2022/06/13 09:27:18;;;;;;;14.03;12.53;;;20.90;97.90;;;;;;5112986;28;20389;-71
2022/06/13 09:30:14;;;;;;;13.37;11.40;;;20.80;97.00;;;;;;5112692;28;20475;-71
2022/06/13 09:32:43;;;;;;;14.80;13.23;;;20.70;97.50;;;;;;5112584;28;20408;-71
2022/06/13 09:35:18;;;;;;;17.23;13.00;;;20.60;99.20;;;;;;5113058;28;20438;-71
2022/06/13 09:37:57;;;;;;;15.00;11.87;;;20.50;98.00;;;;;;5112822;28;20727;-71
2022/06/13 09:41:11;;;;;;;14.83;13.33;;;20.40;98.90;;;;;;5112491;28;20397;-73
2022/06/13 09:43:42;;;;;;;15.33;13.83;;;20.20;98.30;;;;;;5112520;28;20398;-71
2022/06/13 09:46:33;;;;;;;12.20;11.10;;;20.20;98.70;;;;;;5112992;28;20456;-71
2022/06/13 09:49:40;;;;;;;15.17;13.77;;;20.20;98.30;;;;;;5113128;28;20968;-71
2022/06/13 09:52:17;;;;;;;15.67;14.13;;;20.20;99.20;;;;;;5112757;28;20401;-71
2022/06/13 09:55:24;;;;;;;24.00;15.97;;;20.10;98.80;;;;;;5112478;28;20401;-71
2022/06/13 09:58:01;;;;;;;18.20;14.20;;;20.10;99.40;;;;;;5112844;28;20406;-71
2022/06/13 10:00:34;;;;;;;16.47;14.67;;;20.10;99.80;;;;;;5112296;28;20424;-71
2022/06/13 10:03:24;;;;;;;15.00;13.47;;;20.20;99.90;;;;;;5112647;28;20405;-71
2022/06/13 10:06:08;;;;;;;17.07;15.30;;;20.20;99.10;;;;;;5112833;28;20582;-71
2022/06/13 10:08:43;;;;;;;15.63;14.03;;;20.20;99.00;;;;;;5112357;28;20473;-71
2022/06/13 10:11:33;;;;;;;15.83;14.30;;;20.20;98.90;;;;;;5112549;28;20941;-71
2022/06/13 10:14:13;;;;;;;25.10;17.67;;;20.20;98.50;;;;;;5112933;28;20905;-72
2022/06/13 10:17:11;;;;;;;17.93;13.13;;;20.10;98.90;;;;;;5112201;28;20393;-71
2022/06/13 10:20:14;;;;;;;16.67;15.17;;;20.00;98.30;;;;;;5112281;28;20461;-71
2022/06/13 10:22:59;;;;;;;16.40;14.10;;;19.90;99.90;;;;;;5112083;28;20412;-71
2022/06/13 10:25:30;;;;;;;19.60;13.97;;;19.90;99.90;;;;;;5111498;28;20464;-71
2022/06/13 10:28:17;;;;;;;18.03;13.60;;;19.90;99.90;;;;;;5112612;28;20417;-71
2022/06/13 10:30:51;;;;;;;15.13;13.83;;;20.10;99.00;;;;;;5112111;28;20393;-71
2022/06/13 10:33:26;;;;;;;17.60;15.80;;;20.10;97.70;;;;;;5112407;28;20752;-71
2022/06/13 10:36:07;;;;;;;15.17;13.37;;;20.10;98.40;;;;;;5116222;28;20440;-71
2022/06/13 10:39:03;;;;;;;17.03;15.10;;;20.10;97.20;;;;;;5115762;28;20401;-71
2022/06/13 10:41:31;;;;;;;15.23;12.83;;;20.10;97.90;;;;;;5115706;28;20468;-71
2022/06/13 10:43:58;;;;;;;13.47;12.27;;;20.00;98.00;;;;;;5116029;28;20754;-71
2022/06/13 10:46:24;;;;;;;17.73;12.10;;;20.00;98.40;;;;;;5115527;28;20494;-71
2022/06/13 10:49:04;;;;;;;11.03;9.93;;;19.90;97.40;;;;;;5115118;28;20752;-71
2022/06/13 10:51:29;;;;;;;10.47;9.33;;;20.00;98.60;;;;;;5114284;28;20410;-71
2022/06/13 10:54:16;;;;;;;13.40;11.47;;;20.20;98.30;;;;;;5116058;28;20889;-71
2022/06/13 10:56:47;;;;;;;11.70;9.70;;;20.40;97.30;;;;;;5115141;28;20224;-71
2022/06/13 10:59:25;;;;;;;12.80;10.70;;;20.70;96.70;;;;;;5116045;28;20397;-71
2022/06/13 11:02:00;;;;;;;13.83;9.40;;;21.10;96.90;;;;;;5115281;28;20497;-71
2022/06/13 11:04:31;;;;;;;12.43;9.60;;;21.30;96.10;;;;;;5115476;28;20527;-71
2022/06/13 11:07:02;;;;;;;9.43;8.47;;;21.50;94.70;;;;;;5115709;28;20869;-71
2022/06/13 11:10:01;;;;;;;8.13;7.33;;;21.70;95.60;;;;;;5115126;28;20400;-76
2022/06/13 11:12:31;;;;;;;7.33;6.70;;;21.90;92.60;;;;;;5107659;28;20892;-71
2022/06/13 11:23:50;;;;;;;5.20;4.70;;;22.00;91.90;;;;;;5114740;28;20394;-71
2022/06/13 11:29:03;;;;;;;5.60;4.90;;;22.10;85.80;;;;;;5115502;28;20389;-71
2022/06/13 11:31:29;;;;;;;6.70;5.50;;;22.20;89.20;;;;;;5114876;28;20401;-76
2022/06/13 11:33:55;;;;;;;8.63;4.80;;;22.30;89.30;;;;;;5115295;28;20406;-71
2022/06/13 11:36:25;;;;;;;6.73;4.73;;;22.50;87.30;;;;;;5114946;28;20828;-71
2022/06/13 11:39:00;;;;;;;7.70;5.40;;;22.60;84.50;;;;;;5114360;28;20423;-71
2022/06/13 11:41:29;;;;;;;5.70;5.20;;;22.60;83.10;;;;;;5115035;28;20448;-71
2022/06/13 11:44:00;;;;;;;6.73;6.10;;;22.40;83.10;;;;;;5113382;28;20413;-71
2022/06/13 11:46:44;;;;;;;9.03;5.67;;;22.20;82.00;;;;;;5114891;28;20540;-71
2022/06/13 11:49:15;;;;;;;6.07;4.80;;;22.00;82.90;;;;;;5115162;28;20413;-71
2022/06/13 11:51:51;;;;;;;7.10;4.63;;;21.90;85.00;;;;;;5114214;28;20420;-71
2022/06/13 11:54:27;;;;;;;7.43;4.97;;;21.70;83.70;;;;;;5114986;28;20472;-71
2022/06/13 11:57:18;;;;;;;6.53;4.50;;;21.60;85.80;;;;;;5114283;28;20394;-71
2022/06/13 12:00:03;;;;;;;5.73;3.70;;;21.50;86.50;;;;;;5114479;28;20493;-71
2022/06/13 12:02:49;;;;;;;4.47;3.87;;;21.30;82.20;;;;;;5114604;28;20406;-71
2022/06/13 12:05:20;;;;;;;4.27;3.80;;;21.20;83.20;;;;;;5114601;28;20785;-71
2022/06/13 12:07:58;;;;;;;5.43;5.10;;;21.30;86.50;;;;;;5114080;28;20398;-71
2022/06/13 12:10:31;;;;;;;4.83;3.27;;;21.40;85.60;;;;;;5114203;28;20390;-71
2022/06/13 12:12:57;;;;;;;3.90;3.20;;;21.40;81.20;;;;;;5091703;28;20414;-71
2022/06/13 12:15:40;;;;;;;5.47;5.07;;;21.30;80.40;;;;;;5091623;28;20413;-71
2022/06/13 12:18:37;;;;;;;4.67;4.47;;;21.20;80.70;;;;;;5091799;28;20410;-71
2022/06/13 12:21:18;;;;;;;3.03;2.80;;;21.10;79.50;;;;;;5034730;28;20928;-71
2022/06/13 12:24:20;;;;;;;3.70;3.40;;;21.10;80.80;;;;;;5050617;28;20412;-71
2022/06/13 12:27:14;;;;;;;3.40;3.20;;;21.20;79.50;;;;;;5050760;28;20527;-71
2022/06/13 12:30:13;;;;;;;5.20;4.87;;;21.30;79.10;;;;;;5034258;28;20579;-72
2022/06/13 12:32:51;;;;;;;3.30;3.00;;;21.60;76.10;;;;;;5050695;28;20492;-71
2022/06/13 12:35:25;;;;;;;4.60;4.10;;;21.80;76.90;;;;;;5050981;28;20407;-71
2022/06/13 12:38:21;;;;;;;4.20;3.90;;;22.00;73.00;;;;;;5050862;28;20416;-71
2022/06/13 12:41:06;;;;;;;2.40;2.20;;;22.10;71.40;;;;;;5050627;28;20453;-72
2022/06/13 12:43:59;;;;;;;5.13;4.63;;;22.30;74.40;;;;;;5058150;28;20429;-71
2022/06/13 12:46:36;;;;;;;2.80;2.70;;;22.60;77.50;;;;;;5073160;28;20780;-71
2022/06/13 12:49:11;;;;;;;4.00;3.70;;;22.60;73.90;;;;;;5073396;28;20440;-71
2022/06/13 12:51:42;;;;;;;4.07;3.83;;;22.60;73.50;;;;;;5072922;28;20482;-72
2022/06/13 12:54:33;;;;;;;3.10;2.60;;;22.50;72.70;;;;;;5073056;28;20770;-71
2022/06/13 12:57:18;;;;;;;7.00;3.80;;;22.40;72.10;;;;;;5071995;28;20407;-71
2022/06/13 12:59:51;;;;;;;3.53;3.33;;;22.20;73.20;;;;;;5072493;28;20760;-72
2022/06/13 13:02:32;;;;;;;2.13;1.93;;;22.00;73.30;;;;;;5071874;28;20403;-71
2022/06/13 13:05:37;;;;;;;3.73;2.50;;;21.80;74.30;;;;;;5072030;28;20763;-71
2022/06/13 13:08:27;;;;;;;3.77;3.43;;;21.70;76.70;;;;;;5071958;28;20407;-71
2022/06/13 13:11:11;;;;;;;3.93;3.57;;;21.80;81.50;;;;;;5072049;28;20395;-71
2022/06/13 13:13:46;;;;;;;4.23;3.40;;;22.00;79.50;;;;;;5072217;28;20410;-72
2022/06/13 13:16:34;;;;;;;5.00;4.80;;;22.30;80.90;;;;;;5072896;28;20425;-71
2022/06/13 13:19:27;;;;;;;4.40;2.60;;;22.50;77.90;;;;;;5083087;28;20449;-71
2022/06/13 13:22:14;;;;;;;5.60;5.20;;;22.70;75.50;;;;;;5111469;28;20830;-71
2022/06/13 13:25:22;;;;;;;2.20;2.10;;;22.50;75.30;;;;;;5112707;28;20932;-71
2022/06/13 13:28:06;;;;;;;2.80;2.70;;;22.40;73.80;;;;;;5111165;28;20470;-71
2022/06/13 13:30:52;;;;;;;3.53;3.27;;;22.30;74.50;;;;;;5113163;28;20790;-71
2022/06/13 13:33:33;;;;;;;3.40;3.30;;;22.10;75.00;;;;;;5113246;28;20394;-71
2022/06/13 13:36:21;;;;;;;3.80;3.60;;;22.20;76.70;;;;;;5112575;28;20388;-71
2022/06/13 13:38:56;;;;;;;3.37;3.17;;;22.20;74.80;;;;;;5112498;28;20716;-71
2022/06/13 13:41:39;;;;;;;3.07;2.97;;;22.40;75.10;;;;;;5113211;28;20413;-71
2022/06/13 13:44:13;;;;;;;3.40;3.20;;;22.50;72.20;;;;;;5112790;28;20394;-71
2022/06/13 13:46:53;;;;;;;2.93;2.73;;;22.70;73.10;;;;;;5111260;28;20416;-72
2022/06/13 13:49:31;;;;;;;2.77;2.53;;;22.80;70.50;;;;;;5113191;28;20417;-71
2022/06/13 13:52:21;;;;;;;3.00;2.77;;;22.90;68.50;;;;;;5112530;28;20401;-71
2022/06/13 13:54:56;;;;;;;3.33;3.13;;;23.00;67.40;;;;;;5112491;28;20783;-71